Pasto, Colombia

9:15 AM COT on September 02, 2015 (GMT -0500)
Antonio Narino | | Change Station
CLOSE
Current Station
Airport
Location: Pasto,
Elevation: 5948 ft
Nearby Weather Stations

Elev 5948 ft 1.39 °N, 77.29 °W | Updated 15 minutes ago

Scattered Clouds
Scattered Clouds
70 °F
Feels Like 70 °F
N
0
Wind Variable Wind from North

Today
High -- | Low -- °F
--% Chance of Precip.
Yesterday
High -- | Low -- °F
Precip. -- in
6:04 AM 6:12 PM
Waning Gibbous, 80% visible
Pressure 30.25 in
Visibility 6.2 miles
Clouds Scattered Clouds 2800 ft
Dew Point 52 °F
Humidity 53%
Rainfall 0.00 in
Snow Depth Not available.
UV 7 out of 12
Pollen Not available.
Air Quality Not available.
Flu Activity Not available.
METAR SKPS 021400Z 00000KT 9999 VCSH SCT028 21/11 A3025 RMK VCSH/S
Pressure 30.25 in
Visibility 6.2 miles
Clouds Scattered Clouds 2800 ft
Dew Point 52 °F
Humidity 53%
Rainfall 0.00 in
Snow Depth Not available.
UV 7 out of 12
Pollen Not available.
Air Quality Not available.
Flu Activity Not available.
METAR SKPS 021400Z 00000KT 9999 VCSH SCT028 21/11 A3025 RMK VCSH/S

10-Day Weather Forecast

×

Almanac

Astronomy

Sep. 02, 2015 Rise Set
Actual Time
Civil Twilight
Nautical Twilight
Astronomical Twilight
Moon
Length of Visible Light
Length of Day
Tomorrow will be .
, % of the Moon is Illuminated

Today's Extremes

Country Highs Country Lows

Community

WunderPhotos

Upload Photos

1,851,758 photos uploaded!

WunderBlogs® & News

Nearby

Air Quality

  Air Quality AQ Index Pollutant
Not available.

Snow Depth

Station Depth Elevation

Earthquake Activity

City Distance Mag. Time & Date
Minimum magnitude displayed is 2.5.

Coastal Water Temperatures

Place Temperature

Stations

Nearby Weather Stations

Station Location Temp. Windchill Dew Point Humidity Wind Precip. Elev Updated Type